createdAt,value
2018-01-05T00:00:38.736Z,3.22
2018-01-05T00:03:08.276Z,2.90
2018-01-05T00:05:37.878Z,3.00
2018-01-05T00:08:07.351Z,2.90
2018-01-05T00:10:36.866Z,2.70
2018-01-05T00:13:06.386Z,2.40
2018-01-05T00:15:35.928Z,2.42
2018-01-05T00:18:05.395Z,2.40
2018-01-05T00:20:34.937Z,2.78
2018-01-05T00:23:04.428Z,2.30
2018-01-05T00:25:33.929Z,1.98
2018-01-05T00:28:03.406Z,2.20
2018-01-05T00:30:32.916Z,1.90
2018-01-05T00:33:02.378Z,2.10
2018-01-05T00:35:31.903Z,2.25
2018-01-05T00:38:01.414Z,2.22
2018-01-05T00:40:30.904Z,2.15
2018-01-05T00:43:00.352Z,1.98
2018-01-05T00:45:29.900Z,1.85
2018-01-05T00:47:59.400Z,2.00
2018-01-05T00:50:28.876Z,3.22
2018-01-05T00:52:58.366Z,2.22
2018-01-05T00:55:27.872Z,2.15
2018-01-05T00:57:57.394Z,2.35
2018-01-05T01:00:26.879Z,1.80
2018-01-05T01:02:56.482Z,2.42
2018-01-05T01:05:25.979Z,1.87
2018-01-05T01:07:55.505Z,1.90
2018-01-05T01:10:24.966Z,2.12
2018-01-05T01:12:54.515Z,2.53
2018-01-05T01:15:24.065Z,2.25
2018-01-05T01:17:53.541Z,2.53
2018-01-05T01:20:23.061Z,2.20
2018-01-05T01:22:52.538Z,2.25
2018-01-05T01:25:22.044Z,2.87
2018-01-05T01:27:51.554Z,2.12
2018-01-05T01:30:21.097Z,3.05
2018-01-05T01:32:50.603Z,2.60
2018-01-05T01:35:20.121Z,2.37
2018-01-05T01:37:49.666Z,2.47
2018-01-05T01:40:19.161Z,2.10
2018-01-05T01:42:48.722Z,2.85
2018-01-05T01:45:18.253Z,2.47
2018-01-05T01:47:47.792Z,3.00
2018-01-05T01:50:17.275Z,2.83
2018-01-05T01:52:46.788Z,2.30
2018-01-05T01:55:16.268Z,2.95
2018-01-05T01:57:45.772Z,3.67
2018-01-05T02:00:15.298Z,3.10
2018-01-05T02:02:44.781Z,2.80
2018-01-05T02:05:14.286Z,2.78
2018-01-05T02:07:43.786Z,3.70
2018-01-05T02:10:13.264Z,3.60
2018-01-05T02:12:42.757Z,3.22
2018-01-05T02:15:12.268Z,3.00
2018-01-05T02:17:42.197Z,3.22
2018-01-05T02:20:11.685Z,2.97
2018-01-05T02:22:41.182Z,2.90
2018-01-05T02:25:10.649Z,2.60
2018-01-05T02:27:40.174Z,3.58
2018-01-05T02:30:09.651Z,2.90
2018-01-05T02:32:39.168Z,2.85
2018-01-05T02:35:08.741Z,2.85
2018-01-05T02:37:38.312Z,2.78
2018-01-05T02:40:07.787Z,2.85
2018-01-05T02:42:37.294Z,2.60
2018-01-05T02:45:06.781Z,2.75
2018-01-05T02:47:36.288Z,2.83
2018-01-05T02:50:05.835Z,2.50
2018-01-05T02:52:35.288Z,2.47
2018-01-05T02:55:04.819Z,2.70
2018-01-05T02:57:34.301Z,2.50
2018-01-05T03:00:03.870Z,2.47
2018-01-05T03:02:33.435Z,2.58
2018-01-05T03:05:02.942Z,3.15
2018-01-05T03:07:32.516Z,2.80
2018-01-05T03:10:02.010Z,2.15
2018-01-05T03:12:31.489Z,2.30
2018-01-05T03:15:00.936Z,2.12
2018-01-05T03:17:30.451Z,2.30
2018-01-05T03:19:59.929Z,1.98
2018-01-05T03:22:29.437Z,2.40
2018-01-05T03:24:58.944Z,2.17
2018-01-05T03:27:28.408Z,2.05
2018-01-05T03:29:57.919Z,2.15
2018-01-05T03:32:27.380Z,2.25
2018-01-05T03:34:56.874Z,2.80
2018-01-05T03:37:26.347Z,2.20
2018-01-05T03:39:55.856Z,2.47
2018-01-05T03:42:25.340Z,2.30
2018-01-05T03:44:54.857Z,1.95
2018-01-05T03:47:24.330Z,2.00
2018-01-05T03:49:53.832Z,2.12
2018-01-05T03:52:23.301Z,2.42
2018-01-05T03:54:53.645Z,2.22
2018-01-05T03:57:23.140Z,2.47
2018-01-05T03:59:52.660Z,2.35
2018-01-05T04:02:22.131Z,2.17
2018-01-05T04:04:51.640Z,2.53
2018-01-05T04:07:21.163Z,2.62
2018-01-05T04:09:50.649Z,2.33
2018-01-05T04:12:20.156Z,2.00
2018-01-05T04:14:49.643Z,2.20
2018-01-05T04:17:19.161Z,2.80
2018-01-05T04:19:48.655Z,2.30
2018-01-05T04:22:18.118Z,2.20
2018-01-05T04:24:47.642Z,2.50
2018-01-05T04:27:17.369Z,2.58
2018-01-05T04:29:46.890Z,2.85
2018-01-05T04:32:16.367Z,2.20
2018-01-05T04:34:45.863Z,2.53
2018-01-05T04:37:15.368Z,3.92
2018-01-05T04:39:44.929Z,2.25
2018-01-05T04:42:14.451Z,2.92
2018-01-05T04:44:43.963Z,2.50
2018-01-05T04:47:13.487Z,2.20
2018-01-05T04:49:43.045Z,3.15
2018-01-05T04:52:12.536Z,2.92
2018-01-05T04:54:42.034Z,2.45
2018-01-05T04:57:11.542Z,2.83
2018-01-05T04:59:41.048Z,2.75
2018-01-05T05:02:10.577Z,2.70
2018-01-05T05:04:40.057Z,3.15
2018-01-05T05:07:09.532Z,2.85
2018-01-05T05:09:39.033Z,2.50
2018-01-05T05:12:08.541Z,3.30
2018-01-05T05:14:38.073Z,2.37
2018-01-05T05:17:07.541Z,3.22
2018-01-05T05:19:37.057Z,2.80
2018-01-05T05:22:06.574Z,2.40
2018-01-05T05:24:36.091Z,2.15
2018-01-05T05:27:05.667Z,2.72
2018-01-05T05:29:35.247Z,2.25
2018-01-05T05:32:04.801Z,2.12
2018-01-05T05:34:34.405Z,1.52
2018-01-05T05:37:03.923Z,2.22
2018-01-05T05:39:33.390Z,1.83
2018-01-05T05:42:02.912Z,2.28
2018-01-05T05:44:32.395Z,2.83
2018-01-05T05:47:01.915Z,1.90
2018-01-05T05:49:31.431Z,1.85
2018-01-05T05:52:00.932Z,2.00
2018-01-05T05:54:30.460Z,2.22
2018-01-05T05:56:59.999Z,2.62
2018-01-05T05:59:29.534Z,2.28
2018-01-05T06:01:59.044Z,2.33
2018-01-05T06:04:28.520Z,2.40
2018-01-05T06:06:58.052Z,2.83
2018-01-05T06:09:27.541Z,2.72
2018-01-05T06:11:57.065Z,2.85
2018-01-05T06:14:26.548Z,1.85
2018-01-05T06:16:56.072Z,2.35
2018-01-05T06:19:25.619Z,2.33
2018-01-05T06:21:55.112Z,1.85
2018-01-05T06:24:24.672Z,2.00
2018-01-05T06:26:54.151Z,2.60
2018-01-05T06:29:23.617Z,2.20
2018-01-05T06:31:53.144Z,1.95
2018-01-05T06:34:22.609Z,2.58
2018-01-05T06:36:52.248Z,2.70
2018-01-05T06:39:21.698Z,2.08
2018-01-05T06:41:51.214Z,2.30
2018-01-05T06:44:20.692Z,2.47
2018-01-05T06:46:50.217Z,2.20
2018-01-05T06:49:19.736Z,2.50
2018-01-05T06:51:49.206Z,2.17
2018-01-05T06:54:18.798Z,2.40
2018-01-05T06:56:48.252Z,2.42
2018-01-05T06:59:17.778Z,2.67
2018-01-05T07:04:23.122Z,2.50
2018-01-05T07:06:52.723Z,2.15
2018-01-05T07:09:22.334Z,2.78
2018-01-05T07:11:52.105Z,2.20
2018-01-05T07:14:21.600Z,2.03
2018-01-05T07:16:51.212Z,2.40
2018-01-05T07:19:20.808Z,2.83
2018-01-05T07:21:50.253Z,2.12
2018-01-05T07:24:20.272Z,2.60
2018-01-05T07:26:49.741Z,2.10
2018-01-05T07:29:19.397Z,2.65
2018-01-05T07:31:48.877Z,1.83
2018-01-05T07:34:18.435Z,2.58
2018-01-05T07:36:48.227Z,2.35
2018-01-05T07:39:17.689Z,1.92
2018-01-05T07:41:47.217Z,2.47
2018-01-05T07:44:16.667Z,2.97
2018-01-05T07:46:46.190Z,2.53
2018-01-05T07:49:15.708Z,2.12
2018-01-05T07:51:45.202Z,1.80
2018-01-05T07:54:14.798Z,2.25
2018-01-05T07:56:44.305Z,2.20
2018-01-05T07:59:13.764Z,1.87
2018-01-05T08:01:43.264Z,2.10
2018-01-05T08:04:12.750Z,2.40
2018-01-05T08:06:42.260Z,1.95
2018-01-05T08:09:11.768Z,2.22
2018-01-05T08:11:41.207Z,2.20
2018-01-05T08:14:10.701Z,1.83
2018-01-05T08:16:40.216Z,2.62
2018-01-05T08:19:09.690Z,2.10
2018-01-05T08:21:39.198Z,2.50
2018-01-05T08:24:08.747Z,2.40
2018-01-05T08:26:38.229Z,2.62
2018-01-05T08:29:07.733Z,2.03
2018-01-05T08:31:37.206Z,1.87
2018-01-05T08:34:06.787Z,2.58
2018-01-05T08:36:36.504Z,2.10
2018-01-05T08:39:05.982Z,3.50
2018-01-05T08:41:35.483Z,2.50
2018-01-05T08:44:05.010Z,2.08
2018-01-05T08:46:34.487Z,2.72
2018-01-05T08:49:04.012Z,2.35
2018-01-05T08:51:33.501Z,2.50
2018-01-05T08:54:02.998Z,2.67
2018-01-05T08:56:32.485Z,2.40
2018-01-05T08:59:01.989Z,1.87
2018-01-05T09:01:31.464Z,2.22
2018-01-05T09:04:00.980Z,2.30
2018-01-05T09:06:30.537Z,3.25
2018-01-05T09:09:00.081Z,2.20
2018-01-05T09:11:29.523Z,2.50
2018-01-05T09:13:59.039Z,2.30
2018-01-05T09:16:28.502Z,2.60
2018-01-05T09:18:57.975Z,2.05
2018-01-05T09:21:27.470Z,2.53
2018-01-05T09:23:56.955Z,1.85
2018-01-05T09:26:26.586Z,2.30
2018-01-05T09:28:56.050Z,3.15
2018-01-05T09:31:25.541Z,3.50
2018-01-05T09:33:55.048Z,2.60
2018-01-05T09:36:24.540Z,2.17
2018-01-05T09:38:54.036Z,1.95
2018-01-05T09:41:23.579Z,2.20
2018-01-05T09:43:53.092Z,2.45
2018-01-05T09:46:22.615Z,2.35
2018-01-05T09:48:52.089Z,2.87
2018-01-05T09:51:21.634Z,2.62
2018-01-05T09:53:51.138Z,2.47
2018-01-05T09:56:20.628Z,2.55
2018-01-05T09:58:50.191Z,3.15
2018-01-05T10:01:19.669Z,2.60
2018-01-05T10:03:49.200Z,2.70
2018-01-05T10:06:18.672Z,2.90
2018-01-05T10:08:48.171Z,2.50
2018-01-05T10:11:17.650Z,2.40
2018-01-05T10:13:47.145Z,2.75
2018-01-05T10:16:16.633Z,2.15
2018-01-05T10:18:46.157Z,2.30
2018-01-05T10:21:15.611Z,2.30
2018-01-05T10:23:45.228Z,2.83
2018-01-05T10:26:14.752Z,1.90
2018-01-05T10:28:44.264Z,2.40
2018-01-05T10:31:13.798Z,2.35
2018-01-05T10:33:43.293Z,2.10
2018-01-05T10:36:12.830Z,1.98
2018-01-05T10:38:42.309Z,2.62
2018-01-05T10:41:11.824Z,2.40
2018-01-05T10:43:41.313Z,1.98
2018-01-05T10:46:10.760Z,2.35
2018-01-05T10:48:40.333Z,1.85
2018-01-05T10:51:09.797Z,1.87
2018-01-05T10:53:39.408Z,2.08
2018-01-05T10:56:08.851Z,2.17
2018-01-05T10:58:38.388Z,1.70
2018-01-05T11:01:07.884Z,2.37
2018-01-05T11:03:37.392Z,2.37
2018-01-05T11:06:06.896Z,2.35
2018-01-05T11:08:36.452Z,2.83
2018-01-05T11:11:05.939Z,2.70
2018-01-05T11:13:35.488Z,2.55
2018-01-05T11:16:05.010Z,2.70
2018-01-05T11:18:34.526Z,3.15
2018-01-05T11:21:04.078Z,2.65
2018-01-05T11:23:33.567Z,3.53
2018-01-05T11:26:03.099Z,2.87
2018-01-05T11:28:32.700Z,3.65
2018-01-05T11:31:02.307Z,3.87
2018-01-05T11:33:31.803Z,4.68
2018-01-05T11:36:01.325Z,4.20
2018-01-05T11:38:31.014Z,3.97
2018-01-05T11:41:00.473Z,3.55
2018-01-05T11:43:30.000Z,3.12
2018-01-05T11:45:59.507Z,3.55
2018-01-05T11:48:29.018Z,3.90
2018-01-05T11:50:58.625Z,3.35
2018-01-05T11:53:28.142Z,3.40
2018-01-05T11:55:57.643Z,3.70
2018-01-05T11:58:27.148Z,2.83
2018-01-05T12:00:56.616Z,3.58
2018-01-05T12:03:26.132Z,3.33
2018-01-05T12:05:55.607Z,3.12
2018-01-05T12:08:25.177Z,3.10
2018-01-05T12:10:54.821Z,3.53
2018-01-05T12:13:24.338Z,4.20
2018-01-05T12:15:53.836Z,3.58
2018-01-05T12:18:23.368Z,3.67
2018-01-05T12:20:52.880Z,3.50
2018-01-05T12:23:22.411Z,3.60
2018-01-05T12:25:51.925Z,3.40
2018-01-05T12:28:21.426Z,3.55
2018-01-05T12:30:50.993Z,3.45
2018-01-05T12:33:20.550Z,3.10
2018-01-05T12:35:50.088Z,3.03
2018-01-05T12:38:19.599Z,3.45
2018-01-05T12:40:49.948Z,3.17
2018-01-05T12:43:19.519Z,3.40
2018-01-05T12:45:49.072Z,3.30
2018-01-05T12:48:18.609Z,2.95
2018-01-05T12:50:48.070Z,3.28
2018-01-05T12:53:17.563Z,3.17
2018-01-05T12:55:47.079Z,2.40
2018-01-05T12:58:16.728Z,2.50
2018-01-05T13:00:46.199Z,2.70
2018-01-05T13:03:15.729Z,2.28
2018-01-05T13:05:45.273Z,2.15
2018-01-05T13:08:14.810Z,2.37
2018-01-05T13:10:44.268Z,2.30
2018-01-05T13:13:13.764Z,2.75
2018-01-05T13:15:43.332Z,2.58
2018-01-05T13:18:12.793Z,2.40
2018-01-05T13:20:42.312Z,2.17
2018-01-05T13:23:11.781Z,2.50
2018-01-05T13:25:41.290Z,2.45
2018-01-05T13:28:10.934Z,3.00
2018-01-05T13:30:40.418Z,3.10
2018-01-05T13:33:09.935Z,2.05
2018-01-05T13:35:39.437Z,2.80
2018-01-05T13:38:08.916Z,2.95
2018-01-05T13:40:38.436Z,2.95
2018-01-05T13:43:07.941Z,2.53
2018-01-05T13:45:37.462Z,2.53
2018-01-05T13:48:06.944Z,2.33
2018-01-05T13:50:36.478Z,2.50
2018-01-05T13:53:06.027Z,2.30
2018-01-05T13:55:35.517Z,2.47
2018-01-05T13:58:05.028Z,2.45
2018-01-05T14:00:34.489Z,2.85
2018-01-05T14:03:04.023Z,2.58
2018-01-05T14:05:33.479Z,3.33
2018-01-05T14:08:03.008Z,3.12
2018-01-05T14:10:32.582Z,2.55
2018-01-05T14:13:02.091Z,3.47
2018-01-05T14:15:31.616Z,2.53
2018-01-05T14:18:01.229Z,3.33
2018-01-05T14:20:30.715Z,2.83
2018-01-05T14:23:00.224Z,3.00
2018-01-05T14:25:29.745Z,6.57
2018-01-05T14:27:59.369Z,4.20
2018-01-05T14:30:28.899Z,4.30
2018-01-05T14:32:58.363Z,3.65
2018-01-05T14:35:27.932Z,4.00
2018-01-05T14:37:57.443Z,4.05
2018-01-05T14:40:26.925Z,3.47
2018-01-05T14:42:56.381Z,4.07
2018-01-05T14:45:25.904Z,4.10
2018-01-05T14:47:55.359Z,3.92
2018-01-05T14:50:24.901Z,3.87
2018-01-05T14:52:54.391Z,3.83
2018-01-05T14:55:23.943Z,2.90
2018-01-05T14:57:53.471Z,3.67
2018-01-05T15:00:22.981Z,3.42
2018-01-05T15:02:52.511Z,3.20
2018-01-05T15:05:22.005Z,3.10
2018-01-05T15:07:51.544Z,4.32
2018-01-05T15:10:21.005Z,3.60
2018-01-05T15:12:50.520Z,3.55
2018-01-05T15:15:19.981Z,3.30
2018-01-05T15:17:49.625Z,3.67
2018-01-05T15:20:19.101Z,4.05
2018-01-05T15:22:48.603Z,3.90
2018-01-05T15:25:18.123Z,3.15
2018-01-05T15:27:47.627Z,3.25
2018-01-05T15:30:17.105Z,3.10
2018-01-05T15:32:46.791Z,3.45
2018-01-05T15:35:16.332Z,3.20
2018-01-05T15:37:45.806Z,3.67
2018-01-05T15:40:15.323Z,3.50
2018-01-05T15:42:44.854Z,4.93
2018-01-05T15:45:14.326Z,4.75
2018-01-05T15:47:43.840Z,6.40
2018-01-05T15:50:13.445Z,7.90
2018-01-05T15:52:42.963Z,8.38
2018-01-05T15:55:12.467Z,4.57
2018-01-05T15:57:41.993Z,4.10
2018-01-05T16:00:11.482Z,4.20
2018-01-05T16:02:40.968Z,4.55
2018-01-05T16:05:10.529Z,3.67
2018-01-05T16:07:39.997Z,3.33
2018-01-05T16:10:09.505Z,3.37
2018-01-05T16:12:39.024Z,3.75
2018-01-05T16:15:08.539Z,4.57
2018-01-05T16:17:38.067Z,3.55
2018-01-05T16:20:07.572Z,8.80
2018-01-05T16:22:37.061Z,14.30
2018-01-05T16:25:06.582Z,11.70
2018-01-05T16:27:36.091Z,5.47
2018-01-05T16:30:05.589Z,5.28
2018-01-05T16:32:35.147Z,4.40
2018-01-05T16:35:04.646Z,3.35
2018-01-05T16:37:34.219Z,3.95
2018-01-05T16:40:03.676Z,6.12
2018-01-05T16:42:33.192Z,4.28
2018-01-05T16:45:02.710Z,4.85
2018-01-05T16:47:32.242Z,8.35
2018-01-05T16:50:01.740Z,7.78
2018-01-05T16:52:31.252Z,7.32
2018-01-05T16:55:00.738Z,4.85
2018-01-05T16:57:30.257Z,3.95
2018-01-05T16:59:59.719Z,3.15
2018-01-05T17:02:29.237Z,3.33
2018-01-05T17:04:58.730Z,2.75
2018-01-05T17:07:28.244Z,2.80
2018-01-05T17:09:57.736Z,3.15
2018-01-05T17:12:27.248Z,3.33
2018-01-05T17:14:56.738Z,3.22
2018-01-05T17:17:26.273Z,5.03
2018-01-05T17:19:55.773Z,3.85
2018-01-05T17:22:25.936Z,3.40
2018-01-05T17:24:55.523Z,5.10
2018-01-05T17:27:25.072Z,3.80
2018-01-05T17:29:59.543Z,3.72
2018-01-05T17:32:29.123Z,3.35
2018-01-05T17:34:58.602Z,2.97
2018-01-05T17:37:28.127Z,3.65
2018-01-05T17:39:57.679Z,3.60
2018-01-05T17:42:27.193Z,3.25
2018-01-05T17:44:56.672Z,3.47
2018-01-05T17:47:26.213Z,3.10
2018-01-05T17:49:55.762Z,2.58
2018-01-05T17:52:26.065Z,3.05
2018-01-05T17:54:55.519Z,3.05
2018-01-05T17:57:25.156Z,3.10
2018-01-05T17:59:54.730Z,2.53
2018-01-05T18:02:24.342Z,2.90
2018-01-05T18:04:53.886Z,2.90
2018-01-05T18:07:23.370Z,2.70
2018-01-05T18:09:52.889Z,2.92
2018-01-05T18:12:22.399Z,2.70
2018-01-05T18:14:51.883Z,3.00
2018-01-05T18:17:21.403Z,2.30
2018-01-05T18:19:50.885Z,2.40
2018-01-05T18:22:20.409Z,3.55
2018-01-05T18:24:50.394Z,3.20
2018-01-05T18:27:19.904Z,3.70
2018-01-05T18:29:49.402Z,3.10
2018-01-05T18:32:18.945Z,2.60
2018-01-05T18:34:48.413Z,2.62
2018-01-05T18:37:17.921Z,2.80
2018-01-05T18:39:47.399Z,3.03
2018-01-05T18:42:16.898Z,3.30
2018-01-05T18:44:46.373Z,2.78
2018-01-05T18:47:15.908Z,3.33
2018-01-05T18:49:45.372Z,2.87
2018-01-05T18:52:15.046Z,3.30
2018-01-05T18:54:44.526Z,3.10
2018-01-05T18:57:14.133Z,2.58
2018-01-05T18:59:43.707Z,2.78
2018-01-05T19:02:13.328Z,3.78
2018-01-05T19:04:42.846Z,2.83
2018-01-05T19:07:12.410Z,3.15
2018-01-05T19:09:41.969Z,3.05
2018-01-05T19:12:11.581Z,3.55
2018-01-05T19:14:41.112Z,3.10
2018-01-05T19:17:10.656Z,3.30
2018-01-05T19:19:41.058Z,2.90
2018-01-05T19:22:10.564Z,2.92
2018-01-05T19:24:40.096Z,3.62
2018-01-05T19:27:09.661Z,3.17
2018-01-05T19:29:39.958Z,3.10
2018-01-05T19:32:09.512Z,3.83
2018-01-05T19:34:39.108Z,2.95
2018-01-05T19:37:09.519Z,3.30
2018-01-05T19:39:39.061Z,3.70
2018-01-05T19:42:08.548Z,3.15
2018-01-05T19:44:38.147Z,3.17
2018-01-05T19:47:07.723Z,4.40
2018-01-05T19:49:38.080Z,7.10
2018-01-05T19:52:07.646Z,4.60
2018-01-05T19:54:37.180Z,3.70
2018-01-05T19:57:06.743Z,3.70
2018-01-05T19:59:36.243Z,3.40
2018-01-05T20:02:05.828Z,4.10
2018-01-05T20:04:35.342Z,3.80
2018-01-05T20:07:04.895Z,3.55
2018-01-05T20:09:34.428Z,3.35
2018-01-05T20:12:04.025Z,3.85
2018-01-05T20:14:33.522Z,4.07
2018-01-05T20:17:03.097Z,5.28
2018-01-05T20:19:32.651Z,3.65
2018-01-05T20:22:02.398Z,4.25
2018-01-05T20:24:31.915Z,4.78
2018-01-05T20:27:01.447Z,3.87
2018-01-05T20:29:30.971Z,3.72
2018-01-05T20:32:00.524Z,3.20
2018-01-05T20:34:30.032Z,3.55
2018-01-05T20:36:59.612Z,3.95
2018-01-05T20:39:29.123Z,3.95
2018-01-05T20:41:58.700Z,3.45
2018-01-05T20:44:28.269Z,4.00
2018-01-05T20:46:57.799Z,4.10
2018-01-05T20:49:27.354Z,4.47
2018-01-05T20:51:56.873Z,4.07
2018-01-05T20:54:26.446Z,3.50
2018-01-05T20:56:56.008Z,4.37
2018-01-05T20:59:25.563Z,4.32
2018-01-05T21:01:55.101Z,4.35
2018-01-05T21:04:24.761Z,3.70
2018-01-05T21:06:54.316Z,4.87
2018-01-05T21:09:23.863Z,4.43
2018-01-05T21:11:53.400Z,4.20
2018-01-05T21:14:22.908Z,4.20
2018-01-05T21:16:52.462Z,4.30
2018-01-05T21:19:22.008Z,4.18
2018-01-05T21:21:51.545Z,4.28
2018-01-05T21:24:21.128Z,4.10
2018-01-05T21:26:50.662Z,3.45
2018-01-05T21:29:20.250Z,3.30
2018-01-05T21:31:49.778Z,3.80
2018-01-05T21:34:19.319Z,4.32
2018-01-05T21:36:48.841Z,3.70
2018-01-05T21:39:18.428Z,4.32
2018-01-05T21:41:47.959Z,3.75
2018-01-05T21:44:17.563Z,3.70
2018-01-05T21:46:47.041Z,3.67
2018-01-05T21:49:16.623Z,3.45
2018-01-05T21:51:46.106Z,3.72
2018-01-05T21:54:15.682Z,3.80
2018-01-05T21:56:45.192Z,3.45
2018-01-05T21:59:14.758Z,3.45
2018-01-05T22:01:44.264Z,3.60
2018-01-05T22:04:13.823Z,4.15
2018-01-05T22:06:43.462Z,3.80
2018-01-05T22:09:12.994Z,3.40
2018-01-05T22:11:42.514Z,2.75
2018-01-05T22:14:12.053Z,3.65
2018-01-05T22:16:41.640Z,3.75
2018-01-05T22:19:11.207Z,3.78
2018-01-05T22:21:40.746Z,3.53
2018-01-05T22:24:10.266Z,2.95
2018-01-05T22:26:39.806Z,2.90
2018-01-05T22:29:09.346Z,3.58
2018-01-05T22:31:38.871Z,4.15
2018-01-05T22:34:08.357Z,3.47
2018-01-05T22:36:37.890Z,3.10
2018-01-05T22:39:07.339Z,3.60
2018-01-05T22:41:36.881Z,3.55
2018-01-05T22:44:06.340Z,3.97
2018-01-05T22:46:35.875Z,6.03
2018-01-05T22:49:05.400Z,5.07
2018-01-05T22:51:34.871Z,4.80
2018-01-05T22:54:04.376Z,4.00
2018-01-05T22:56:33.861Z,3.30
2018-01-05T22:59:04.019Z,3.00
2018-01-05T23:01:33.471Z,5.85
2018-01-05T23:04:02.977Z,4.28
2018-01-05T23:06:32.456Z,4.15
2018-01-05T23:09:01.953Z,4.47
2018-01-05T23:11:31.458Z,4.78
2018-01-05T23:14:00.918Z,3.20
2018-01-05T23:16:30.477Z,2.65
2018-01-05T23:18:59.982Z,2.70
2018-01-05T23:21:29.541Z,4.28
2018-01-05T23:23:59.023Z,5.68
2018-01-05T23:26:28.513Z,3.90
2018-01-05T23:28:58.025Z,3.97
2018-01-05T23:31:27.502Z,3.30
2018-01-05T23:33:57.012Z,2.70
2018-01-05T23:36:26.521Z,2.42
2018-01-05T23:38:56.275Z,17.60
2018-01-05T23:41:25.743Z,15.60
2018-01-05T23:43:55.262Z,5.70
2018-01-05T23:46:24.728Z,3.70
2018-01-05T23:48:54.239Z,2.70
2018-01-05T23:51:23.750Z,3.35
2018-01-05T23:53:53.409Z,4.25
2018-01-05T23:56:22.895Z,2.87
2018-01-05T23:58:52.408Z,2.67
